Time;durP1;ratioP1;P1;durP2;ratioP2;P2;SDS_P1;SDS_P2;PMS_P1;PMS_P2;Temp;Humidity;BMP_temperature;BMP_pressure;BME280_temperature;BME280_humidity;BME280_pressure;Samples;Min_cycle;Max_cycle;Signal;HPM_P1;HPM_P2
2023/10/19 00:00:51;;;;;;;1.27;0.20;;;11.60;99.90;;;;;;4974315;28;20026;-96
2023/10/19 00:03:18;;;;;;;0.30;0.30;;;11.60;99.90;;;;;;4976318;28;20083;-96
2023/10/19 00:05:46;;;;;;;0.35;0.30;;;11.60;99.90;;;;;;4991007;28;20030;-95
2023/10/19 00:10:39;;;;;;;0.85;0.38;;;11.60;99.90;;;;;;4975649;28;20019;-96
2023/10/19 00:13:08;;;;;;;0.43;0.30;;;11.60;99.90;;;;;;4997213;28;20027;-95
2023/10/19 00:15:53;;;;;;;0.17;0.17;;;11.60;99.90;;;;;;4985664;28;20042;-95
2023/10/19 00:18:22;;;;;;;0.75;0.20;;;11.60;99.90;;;;;;4990782;28;20114;-96
2023/10/19 00:21:19;;;;;;;0.52;0.30;;;11.60;99.90;;;;;;4986794;28;20056;-96
2023/10/19 00:23:49;;;;;;;0.28;0.25;;;11.60;99.90;;;;;;4989154;28;20041;-95
2023/10/19 00:26:19;;;;;;;0.30;0.30;;;11.60;99.90;;;;;;4981086;28;20098;-96
2023/10/19 00:29:00;;;;;;;0.10;0.10;;;11.60;99.90;;;;;;4979870;28;20031;-96
2023/10/19 00:31:40;;;;;;;0.68;0.40;;;11.60;99.90;;;;;;5016217;28;20018;-96
2023/10/19 00:34:12;;;;;;;0.30;0.20;;;11.60;99.90;;;;;;4999031;28;20031;-96
2023/10/19 00:36:43;;;;;;;0.55;0.17;;;11.60;99.90;;;;;;4990630;28;20015;-96
2023/10/19 00:39:20;;;;;;;0.30;0.20;;;11.60;99.90;;;;;;5007927;28;20019;-96
2023/10/19 00:41:47;;;;;;;0.32;0.20;;;11.60;99.90;;;;;;4984346;28;20523;-96
2023/10/19 00:44:22;;;;;;;0.70;0.40;;;11.60;99.90;;;;;;4997280;28;20034;-95
2023/10/19 00:47:03;;;;;;;0.68;0.20;;;11.60;99.90;;;;;;4997866;28;20031;-95
2023/10/19 00:49:30;;;;;;;;;;;11.60;99.90;;;;;;4993252;28;20029;-96
2023/10/19 00:52:11;;;;;;;0.20;0.10;;;11.60;99.90;;;;;;4980707;28;19997;-96
2023/10/19 00:54:50;;;;;;;;;;;11.60;99.90;;;;;;4998232;28;20447;-96
2023/10/19 00:57:20;;;;;;;0.82;0.20;;;11.60;99.90;;;;;;4983174;28;19910;-95
2023/10/19 01:00:11;;;;;;;0.20;0.10;;;11.60;99.90;;;;;;5010013;28;20095;-96
2023/10/19 01:02:44;;;;;;;0.17;0.10;;;11.60;99.90;;;;;;4984683;28;20069;-95
2023/10/19 01:05:13;;;;;;;0.10;0.10;;;11.60;99.90;;;;;;4995003;28;20027;-95
2023/10/19 01:07:39;;;;;;;0.20;0.20;;;11.60;99.90;;;;;;4993390;28;20035;-95
2023/10/19 01:10:12;;;;;;;0.30;0.20;;;11.60;99.90;;;;;;4976972;28;20385;-94
2023/10/19 01:12:41;;;;;;;1.25;0.20;;;11.60;99.90;;;;;;4992341;28;20122;-94
2023/10/19 01:15:17;;;;;;;3.60;0.20;;;11.60;99.90;;;;;;4981870;28;20031;-95
2023/10/19 01:17:45;;;;;;;0.10;0.05;;;11.60;99.90;;;;;;5007061;28;20069;-95
2023/10/19 01:20:42;;;;;;;0.13;0.13;;;11.60;99.90;;;;;;4997808;28;20023;-95
2023/10/19 01:25:59;;;;;;;0.00;0.00;;;11.70;99.90;;;;;;4983663;28;20038;-96
2023/10/19 01:28:28;;;;;;;;;;;11.70;99.90;;;;;;5004781;28;20031;-96
2023/10/19 01:30:54;;;;;;;0.38;0.10;;;11.70;99.90;;;;;;4979665;28;19914;-95
2023/10/19 01:33:22;;;;;;;0.52;0.30;;;11.70;99.90;;;;;;4998010;28;20054;-94
2023/10/19 01:38:34;;;;;;;0.20;0.10;;;11.70;99.90;;;;;;4982747;28;20041;-94
2023/10/19 01:41:15;;;;;;;0.10;0.10;;;11.70;99.90;;;;;;5008765;28;20037;-96
2023/10/19 01:43:42;;;;;;;1.45;0.20;;;11.70;99.90;;;;;;5010602;28;20042;-96
2023/10/19 01:46:12;;;;;;;0.10;0.10;;;11.70;99.90;;;;;;5013417;28;20043;-95
2023/10/19 01:48:43;;;;;;;0.43;0.00;;;11.80;99.90;;;;;;5016370;28;20010;-95
2023/10/19 01:51:13;;;;;;;0.10;0.10;;;11.80;99.90;;;;;;5016767;28;20018;-96
2023/10/19 01:53:44;;;;;;;0.30;0.20;;;11.80;99.90;;;;;;4999330;28;20031;-94
2023/10/19 01:56:10;;;;;;;0.08;0.08;;;11.80;99.90;;;;;;4992268;28;20038;-95
2023/10/19 01:58:40;;;;;;;0.20;0.20;;;11.80;99.90;;;;;;4992886;28;20062;-96
2023/10/19 02:01:15;;;;;;;2.20;0.43;;;11.80;99.90;;;;;;4979222;28;20034;-96
2023/10/19 02:03:43;;;;;;;0.73;0.20;;;11.80;99.90;;;;;;4993768;28;20034;-96
2023/10/19 02:06:20;;;;;;;0.20;0.20;;;11.80;99.90;;;;;;4976096;28;20034;-95
2023/10/19 02:09:00;;;;;;;0.75;0.30;;;11.80;99.90;;;;;;4991880;28;20029;-95
2023/10/19 02:11:26;;;;;;;2.50;0.10;;;11.80;99.90;;;;;;4991789;28;20034;-95
2023/10/19 02:13:54;;;;;;;0.20;0.20;;;11.80;99.90;;;;;;4992007;28;20416;-95
2023/10/19 02:16:23;;;;;;;0.10;0.10;;;11.80;99.90;;;;;;4991008;28;20070;-94
2023/10/19 02:18:50;;;;;;;0.45;0.30;;;11.80;99.90;;;;;;4975491;28;20038;-95
2023/10/19 02:21:21;;;;;;;0.57;0.20;;;11.80;99.90;;;;;;4975194;28;20069;-95
2023/10/19 02:23:50;;;;;;;0.10;0.10;;;11.80;99.90;;;;;;4975509;28;20023;-93
2023/10/19 02:26:19;;;;;;;0.10;0.10;;;11.80;99.90;;;;;;4976272;28;20043;-93
2023/10/19 02:28:46;;;;;;;0.63;0.25;;;11.80;99.90;;;;;;4976850;28;20439;-94
2023/10/19 02:31:19;;;;;;;1.27;0.20;;;11.80;99.90;;;;;;4975545;28;20461;-93
2023/10/19 02:33:46;;;;;;;1.20;0.17;;;11.80;99.90;;;;;;4974636;28;20030;-93
2023/10/19 02:36:13;;;;;;;0.38;0.38;;;11.80;99.90;;;;;;4974647;28;20101;-92
2023/10/19 02:38:41;;;;;;;0.85;0.30;;;11.80;99.90;;;;;;4978924;28;20081;-93
2023/10/19 02:41:09;;;;;;;0.45;0.20;;;11.80;99.90;;;;;;4983922;28;20046;-93
2023/10/19 02:43:35;;;;;;;0.20;0.20;;;11.80;99.90;;;;;;4982363;28;20078;-93
2023/10/19 02:46:02;;;;;;;0.30;0.30;;;11.80;99.90;;;;;;4979665;28;20043;-94
2023/10/19 02:48:28;;;;;;;0.30;0.30;;;11.90;99.90;;;;;;4976426;28;20022;-93
2023/10/19 02:50:53;;;;;;;0.55;0.20;;;11.90;99.90;;;;;;4976348;28;20041;-93
2023/10/19 02:53:19;;;;;;;0.57;0.50;;;11.90;99.90;;;;;;4972645;28;20023;-94
2023/10/19 02:55:45;;;;;;;1.55;0.32;;;12.00;99.90;;;;;;4956241;29;20024;-94
2023/10/19 02:58:13;;;;;;;1.23;0.35;;;12.00;99.90;;;;;;4955546;28;20027;-94
2023/10/19 03:00:39;;;;;;;0.38;0.20;;;12.00;99.90;;;;;;4955765;29;20024;-95
2023/10/19 03:03:06;;;;;;;0.17;0.17;;;12.00;99.90;;;;;;4955689;29;20027;-95
2023/10/19 03:05:34;;;;;;;3.80;0.45;;;12.00;99.90;;;;;;4955544;29;20027;-94
2023/10/19 03:08:05;;;;;;;2.20;0.57;;;12.00;99.90;;;;;;4955477;29;20031;-93
2023/10/19 03:10:41;;;;;;;0.32;0.32;;;12.00;99.90;;;;;;4955190;29;20031;-93
2023/10/19 03:13:09;;;;;;;1.10;0.30;;;12.00;99.90;;;;;;4955045;29;20121;-93
2023/10/19 03:15:35;;;;;;;0.63;0.50;;;12.00;99.90;;;;;;4955223;29;20031;-94
2023/10/19 03:18:04;;;;;;;2.90;0.50;;;12.00;99.90;;;;;;4956256;28;20034;-94
2023/10/19 03:20:33;;;;;;;0.65;0.65;;;12.00;99.90;;;;;;4971076;28;20035;-93
2023/10/19 03:23:01;;;;;;;3.78;1.70;;;12.00;99.90;;;;;;4954995;29;20030;-92
2023/10/19 03:28:11;;;;;;;4.03;2.88;;;12.00;99.90;;;;;;4956514;29;20047;-92
2023/10/19 03:30:40;;;;;;;3.97;2.80;;;12.00;99.90;;;;;;4955407;29;20023;-91
2023/10/19 03:33:11;;;;;;;3.55;2.78;;;12.00;99.90;;;;;;4954964;29;20050;-92
2023/10/19 03:35:38;;;;;;;6.32;4.05;;;12.10;99.90;;;;;;4954008;29;20058;-92
2023/10/19 03:38:18;;;;;;;6.70;4.18;;;12.10;99.90;;;;;;4954789;29;20035;-92
2023/10/19 03:40:51;;;;;;;6.20;3.83;;;12.10;99.90;;;;;;4954793;29;20059;-93
2023/10/19 03:43:23;;;;;;;7.30;4.47;;;12.10;99.90;;;;;;4954592;29;20115;-92
2023/10/19 03:45:55;;;;;;;8.27;5.03;;;12.10;99.90;;;;;;4954386;29;20133;-92
2023/10/19 03:48:29;;;;;;;8.77;5.13;;;12.10;99.90;;;;;;4954514;29;20019;-92
2023/10/19 03:50:56;;;;;;;7.28;4.30;;;12.00;99.90;;;;;;4954653;29;20031;-92
2023/10/19 03:53:23;;;;;;;9.00;5.15;;;12.00;99.90;;;;;;4954678;29;20074;-92
2023/10/19 03:55:52;;;;;;;8.20;4.55;;;12.00;99.90;;;;;;4954540;29;20554;-91
2023/10/19 03:58:20;;;;;;;9.93;5.47;;;12.10;99.90;;;;;;4953821;28;20400;-92
2023/10/19 04:00:48;;;;;;;10.57;5.57;;;12.00;99.90;;;;;;4953662;29;20058;-92
2023/10/19 04:03:14;;;;;;;10.93;5.55;;;12.00;99.90;;;;;;4954547;29;20031;-93
2023/10/19 04:05:41;;;;;;;9.00;5.10;;;12.10;99.90;;;;;;4954062;29;20035;-91
2023/10/19 04:08:14;;;;;;;9.05;4.93;;;12.00;99.90;;;;;;4955435;28;20027;-90
2023/10/19 04:11:08;;;;;;;7.18;4.82;;;12.10;99.90;;;;;;4954295;29;20027;-92
2023/10/19 04:13:36;;;;;;;6.38;4.50;;;12.10;99.90;;;;;;4953528;29;20027;-92
2023/10/19 04:16:02;;;;;;;7.30;4.45;;;12.10;99.90;;;;;;4954255;29;20117;-92
2023/10/19 04:18:28;;;;;;;7.45;4.95;;;12.10;99.90;;;;;;4954257;29;20481;-91
2023/10/19 04:23:26;;;;;;;9.98;5.80;;;12.10;99.90;;;;;;4955090;29;20473;-91
2023/10/19 04:26:02;;;;;;;7.28;5.15;;;12.10;99.90;;;;;;4970242;28;20035;-93
2023/10/19 04:28:31;;;;;;;7.57;5.18;;;12.20;99.90;;;;;;4953946;29;20035;-92
2023/10/19 04:31:02;;;;;;;8.32;5.40;;;12.20;99.90;;;;;;4954189;29;20110;-91
2023/10/19 04:33:29;;;;;;;;;;;12.20;99.90;;;;;;4955319;28;20465;-93
2023/10/19 04:35:55;;;;;;;7.28;4.75;;;12.20;99.90;;;;;;4954384;29;19962;-92
2023/10/19 04:38:23;;;;;;;6.95;4.65;;;12.20;99.90;;;;;;4954534;29;20111;-93
2023/10/19 04:40:48;;;;;;;8.02;4.78;;;12.20;99.90;;;;;;4955526;29;20043;-92
2023/10/19 04:43:16;;;;;;;6.28;4.68;;;12.20;99.90;;;;;;4955232;29;20034;-93
2023/10/19 04:45:44;;;;;;;5.95;4.20;;;12.20;99.90;;;;;;4956088;29;20027;-94
2023/10/19 04:48:10;;;;;;;5.18;4.03;;;12.30;99.90;;;;;;4954461;29;20024;-93
2023/10/19 04:50:36;;;;;;;5.55;3.88;;;12.30;99.90;;;;;;4954270;29;20090;-93
2023/10/19 04:53:02;;;;;;;6.50;4.10;;;12.30;99.90;;;;;;4954284;29;20039;-93
2023/10/19 04:55:29;;;;;;;4.63;3.15;;;12.30;99.90;;;;;;4953573;29;20177;-94
2023/10/19 04:57:56;;;;;;;5.93;3.65;;;12.30;99.90;;;;;;4953606;29;20054;-93
2023/10/19 05:00:24;;;;;;;5.82;3.42;;;12.40;99.90;;;;;;4953759;29;20027;-94
2023/10/19 05:02:51;;;;;;;3.45;2.88;;;12.40;99.90;;;;;;4953672;29;20024;-93
2023/10/19 05:05:18;;;;;;;4.07;2.90;;;12.40;99.90;;;;;;4953921;29;20042;-92
2023/10/19 05:07:43;;;;;;;3.03;2.50;;;12.40;99.90;;;;;;4954237;29;20615;-93
2023/10/19 05:10:11;;;;;;;3.60;2.90;;;12.40;99.90;;;;;;4953760;28;20035;-93
2023/10/19 05:12:36;;;;;;;4.30;2.70;;;12.40;99.90;;;;;;4956485;29;20038;-95
2023/10/19 05:15:02;;;;;;;3.10;2.70;;;12.40;99.90;;;;;;4956773;29;20031;-93
2023/10/19 05:17:28;;;;;;;8.70;3.90;;;12.40;99.90;;;;;;4957138;29;20033;-94
2023/10/19 05:19:54;;;;;;;4.15;2.58;;;12.40;99.90;;;;;;4956809;29;20063;-93
2023/10/19 05:22:21;;;;;;;4.85;2.85;;;12.40;99.90;;;;;;4957090;29;20062;-93
2023/10/19 05:24:47;;;;;;;5.82;3.65;;;12.40;99.90;;;;;;4957288;29;20548;-93
2023/10/19 05:27:13;;;;;;;3.15;2.20;;;12.30;99.90;;;;;;4956896;29;20552;-94
2023/10/19 05:29:39;;;;;;;2.85;2.08;;;12.30;99.90;;;;;;4956949;29;20024;-93
2023/10/19 05:32:05;;;;;;;3.67;2.53;;;12.30;99.90;;;;;;4956214;29;20027;-92
2023/10/19 05:34:34;;;;;;;5.95;2.40;;;12.40;99.90;;;;;;4956837;29;20046;-94
2023/10/19 05:37:02;;;;;;;4.10;2.30;;;12.40;99.90;;;;;;4963034;29;20488;-94
2023/10/19 05:39:28;;;;;;;4.60;2.70;;;12.40;99.90;;;;;;4966032;29;20051;-94
2023/10/19 05:41:54;;;;;;;4.60;2.20;;;12.40;99.90;;;;;;4978889;28;20066;-94
2023/10/19 05:44:21;;;;;;;4.22;2.20;;;12.40;99.90;;;;;;5000305;28;20043;-94
2023/10/19 05:46:46;;;;;;;5.78;2.28;;;12.40;99.90;;;;;;4997265;28;20035;-94
2023/10/19 05:49:12;;;;;;;4.25;2.20;;;12.40;99.90;;;;;;4978680;28;20038;-95
2023/10/19 05:51:39;;;;;;;4.20;2.70;;;12.40;99.90;;;;;;4993470;28;20023;-94
2023/10/19 05:54:05;;;;;;;4.50;2.35;;;12.40;99.90;;;;;;4994074;28;20031;-93
2023/10/19 05:56:34;;;;;;;6.93;2.25;;;12.50;99.90;;;;;;4976592;28;20078;-93
2023/10/19 05:59:01;;;;;;;9.70;3.17;;;12.50;99.90;;;;;;4992564;28;20110;-93
2023/10/19 06:01:26;;;;;;;7.25;3.05;;;12.50;99.90;;;;;;4975997;28;20050;-94
2023/10/19 06:03:52;;;;;;;10.65;3.35;;;12.40;99.90;;;;;;4993976;28;20027;-93
2023/10/19 06:06:19;;;;;;;6.18;2.92;;;12.40;99.90;;;;;;4993767;28;20039;-93
2023/10/19 06:08:45;;;;;;;6.47;2.67;;;12.40;99.90;;;;;;4993720;28;20468;-94
2023/10/19 06:11:11;;;;;;;7.32;3.58;;;12.40;99.90;;;;;;4980562;28;20034;-94
2023/10/19 06:13:37;;;;;;;5.35;3.20;;;12.50;99.90;;;;;;4998325;28;20023;-95
2023/10/19 06:16:03;;;;;;;6.90;2.78;;;12.50;99.90;;;;;;4981860;28;20058;-95
2023/10/19 06:18:31;;;;;;;5.15;3.22;;;12.50;99.90;;;;;;4982170;28;20028;-95
2023/10/19 06:20:57;;;;;;;10.57;3.85;;;12.50;99.90;;;;;;5011818;28;20023;-94
2023/10/19 06:23:24;;;;;;;6.93;4.28;;;12.50;99.90;;;;;;4996603;28;20070;-94
2023/10/19 06:25:51;;;;;;;8.88;4.35;;;12.50;99.90;;;;;;5004387;28;20030;-94
2023/10/19 06:28:17;;;;;;;9.40;3.38;;;12.50;99.90;;;;;;4976325;28;20058;-94
2023/10/19 06:30:43;;;;;;;7.68;3.97;;;12.50;99.90;;;;;;4975157;28;20388;-95
2023/10/19 06:33:09;;;;;;;7.38;3.53;;;12.50;99.90;;;;;;4990589;28;20026;-93
2023/10/19 06:35:37;;;;;;;12.93;3.75;;;12.50;99.90;;;;;;4974457;28;20629;-94
2023/10/19 06:38:03;;;;;;;8.73;4.45;;;12.50;99.90;;;;;;4975204;28;20063;-93
2023/10/19 06:40:30;;;;;;;14.63;4.95;;;12.50;99.90;;;;;;4991031;28;20070;-93
2023/10/19 06:42:57;;;;;;;13.52;4.40;;;12.50;99.90;;;;;;4974501;28;20034;-93
2023/10/19 06:45:25;;;;;;;11.07;4.38;;;12.50;99.90;;;;;;4990989;28;20023;-94
2023/10/19 06:47:51;;;;;;;11.88;4.78;;;12.50;99.90;;;;;;4990447;28;20114;-93
2023/10/19 06:50:22;;;;;;;16.98;4.47;;;12.50;99.90;;;;;;4990787;28;20019;-93
2023/10/19 06:52:48;;;;;;;12.15;4.70;;;12.50;99.90;;;;;;4990995;28;20058;-94
2023/10/19 06:55:22;;;;;;;12.63;4.25;;;12.50;99.90;;;;;;4990528;28;20034;-93
2023/10/19 06:57:55;;;;;;;14.73;4.80;;;12.50;99.90;;;;;;4989699;28;20038;-93
2023/10/19 07:00:23;;;;;;;9.40;4.05;;;12.50;99.90;;;;;;4974708;28;20023;-93
2023/10/19 07:02:50;;;;;;;10.30;4.32;;;12.50;99.90;;;;;;4989987;28;20041;-95
2023/10/19 07:05:18;;;;;;;9.02;4.15;;;12.50;99.90;;;;;;4991143;28;20089;-93
2023/10/19 07:07:45;;;;;;;12.43;4.35;;;12.60;99.90;;;;;;4991830;28;20045;-93
2023/10/19 07:10:12;;;;;;;7.88;4.10;;;12.50;99.90;;;;;;4990941;28;20023;-95
2023/10/19 07:12:40;;;;;;;16.15;4.25;;;12.60;99.90;;;;;;4991282;28;20620;-94
2023/10/19 07:15:13;;;;;;;10.63;4.57;;;12.60;99.90;;;;;;4989363;28;20543;-95
2023/10/19 07:17:46;;;;;;;15.20;5.07;;;12.60;99.90;;;;;;4986737;28;20034;-96
2023/10/19 07:20:26;;;;;;;14.43;4.80;;;12.60;99.90;;;;;;4971471;28;20030;-96
2023/10/19 07:22:53;;;;;;;15.30;4.15;;;12.60;99.90;;;;;;4961532;28;20174;-96
2023/10/19 07:25:20;;;;;;;10.73;5.22;;;12.70;99.90;;;;;;4992595;28;20031;-95
2023/10/19 07:27:50;;;;;;;14.50;6.55;;;12.60;99.90;;;;;;4992351;28;20053;-96
2023/10/19 07:30:21;;;;;;;10.73;6.60;;;12.70;99.90;;;;;;4991058;28;20030;-95
2023/10/19 07:32:54;;;;;;;18.70;8.13;;;12.70;99.90;;;;;;4991058;28;20022;-95
2023/10/19 07:35:26;;;;;;;14.93;7.85;;;12.70;99.90;;;;;;4993188;28;20061;-94
2023/10/19 07:37:52;;;;;;;11.88;7.38;;;12.70;99.90;;;;;;4979829;28;20031;-94
2023/10/19 07:40:18;;;;;;;11.27;6.25;;;12.80;99.90;;;;;;4982480;28;20042;-95
2023/10/19 07:42:46;;;;;;;11.30;5.15;;;12.80;99.90;;;;;;4989237;28;20031;-96
2023/10/19 07:45:12;;;;;;;9.27;4.85;;;12.80;99.90;;;;;;4968896;28;20034;-95
2023/10/19 07:47:42;;;;;;;5.85;3.67;;;12.80;99.90;;;;;;4990338;28;20041;-95
2023/10/19 07:50:16;;;;;;;8.32;3.08;;;12.80;99.90;;;;;;4989171;28;20026;-96
2023/10/19 07:53:09;;;;;;;6.22;3.13;;;12.90;99.90;;;;;;4995912;28;20030;-96
2023/10/19 07:58:37;;;;;;;5.10;2.20;;;12.90;99.90;;;;;;5024469;23;20058;-96
2023/10/19 08:11:55;;;;;;;1.45;1.27;;;13.10;99.90;;;;;;5006325;23;20051;-94
2023/10/19 08:14:24;;;;;;;5.03;1.70;;;13.20;99.90;;;;;;4997402;28;20049;-95
2023/10/19 08:16:51;;;;;;;4.38;1.42;;;13.20;99.90;;;;;;4983670;28;20031;-94
2023/10/19 08:19:22;;;;;;;4.80;1.45;;;13.20;99.90;;;;;;4982874;28;20473;-95
2023/10/19 08:21:48;;;;;;;1.65;1.15;;;13.20;99.90;;;;;;4981961;28;20059;-95
2023/10/19 08:24:17;;;;;;;1.92;0.90;;;13.30;99.90;;;;;;4980224;28;20408;-95
2023/10/19 08:26:46;;;;;;;1.42;1.15;;;13.40;99.90;;;;;;4985758;28;20031;-95
2023/10/19 08:29:13;;;;;;;1.48;0.93;;;13.40;99.90;;;;;;4979661;28;20027;-95
2023/10/19 08:31:45;;;;;;;2.83;1.05;;;13.50;99.90;;;;;;4982224;28;20033;-95
2023/10/19 08:34:11;;;;;;;2.03;0.82;;;13.60;99.90;;;;;;4989384;28;20014;-95
2023/10/19 08:36:38;;;;;;;1.85;0.80;;;13.60;99.90;;;;;;4987879;28;20035;-96
2023/10/19 08:39:08;;;;;;;2.63;1.20;;;13.70;99.90;;;;;;4983852;28;20034;-95
2023/10/19 08:41:36;;;;;;;3.95;1.08;;;13.70;99.90;;;;;;4982361;28;20023;-95
2023/10/19 08:44:11;;;;;;;2.17;0.95;;;13.70;99.90;;;;;;4982863;28;20038;-95
2023/10/19 08:46:57;;;;;;;5.57;1.63;;;13.70;99.90;;;;;;4995301;28;20038;-96
2023/10/19 08:49:22;;;;;;;7.32;1.52;;;13.80;99.90;;;;;;4994985;28;20039;-96
2023/10/19 08:51:56;;;;;;;3.65;1.55;;;13.80;99.90;;;;;;4989849;28;20019;-96
2023/10/19 08:54:22;;;;;;;6.95;2.05;;;13.80;99.90;;;;;;4984831;28;20023;-95
2023/10/19 08:56:55;;;;;;;7.63;1.85;;;13.80;99.90;;;;;;5153151;23;20110;-95
2023/10/19 08:59:21;;;;;;;5.32;1.63;;;13.80;99.90;;;;;;4998346;28;20015;-96
2023/10/19 09:01:49;;;;;;;5.53;2.25;;;13.80;99.90;;;;;;4978767;28;20042;-95
2023/10/19 09:04:21;;;;;;;6.22;1.73;;;13.90;99.90;;;;;;5418153;23;20061;-95
2023/10/19 09:06:55;;;;;;;7.85;2.08;;;13.90;99.90;;;;;;4999259;28;20089;-95
2023/10/19 09:09:25;;;;;;;12.05;2.10;;;13.90;99.90;;;;;;4990873;28;20030;-94
2023/10/19 09:11:54;;;;;;;19.20;2.20;;;14.00;99.90;;;;;;4997862;28;20018;-95
2023/10/19 09:14:36;;;;;;;10.02;2.35;;;14.00;99.90;;;;;;4986674;28;20473;-94
2023/10/19 09:17:03;;;;;;;5.03;1.80;;;14.10;99.90;;;;;;4985707;28;20027;-96
2023/10/19 09:19:43;;;;;;;9.27;2.40;;;14.20;99.90;;;;;;4982953;28;20023;-95
2023/10/19 09:22:22;;;;;;;9.98;1.98;;;14.20;99.90;;;;;;4950130;28;20031;-95
2023/10/19 09:25:03;;;;;;;11.18;2.35;;;14.30;99.90;;;;;;4978786;28;20030;-94
2023/10/19 09:27:29;;;;;;;11.80;2.15;;;14.40;99.90;;;;;;4969283;28;20046;-95
2023/10/19 09:29:55;;;;;;;9.48;1.85;;;14.40;99.90;;;;;;4980994;28;20035;-95
2023/10/19 09:32:21;;;;;;;9.00;1.90;;;14.40;99.90;;;;;;4980516;28;20035;-95
2023/10/19 09:34:48;;;;;;;11.25;2.10;;;14.40;99.90;;;;;;4974626;28;20115;-96
2023/10/19 09:37:17;;;;;;;11.27;2.33;;;14.50;99.90;;;;;;4980564;28;20023;-96
2023/10/19 09:39:43;;;;;;;7.78;1.65;;;14.50;99.90;;;;;;4981761;28;20142;-95
2023/10/19 09:42:11;;;;;;;11.82;1.77;;;14.50;99.90;;;;;;4984948;28;20023;-96
2023/10/19 09:44:45;;;;;;;12.75;1.88;;;14.60;99.90;;;;;;4990193;28;20038;-95
2023/10/19 09:47:37;;;;;;;9.30;1.45;;;14.60;99.90;;;;;;4969393;28;20042;-94
2023/10/19 09:50:06;;;;;;;11.38;1.48;;;14.70;99.90;;;;;;4983615;28;20444;-95
2023/10/19 09:52:32;;;;;;;8.63;1.58;;;14.70;99.90;;;;;;4982464;28;20385;-94
2023/10/19 09:55:28;;;;;;;9.35;1.65;;;14.80;99.90;;;;;;4986410;28;20072;-95
2023/10/19 09:58:14;;;;;;;12.88;2.10;;;14.80;99.90;;;;;;4961801;28;20089;-94
2023/10/19 10:00:44;;;;;;;7.50;1.50;;;14.90;99.90;;;;;;4975767;28;20029;-94
2023/10/19 10:03:58;;;;;;;8.68;1.80;;;15.00;99.90;;;;;;5002124;28;20027;-96
2023/10/19 10:15:02;;;;;;;9.25;1.65;;;15.20;99.90;;;;;;5265678;23;20133;-95
2023/10/19 10:17:28;;;;;;;10.98;2.35;;;15.30;99.90;;;;;;4991382;28;20111;-94
2023/10/19 10:20:17;;;;;;;16.10;1.92;;;15.30;99.90;;;;;;4979862;28;20027;-93
2023/10/19 10:22:43;;;;;;;13.77;2.03;;;15.30;99.90;;;;;;4975319;28;20023;-94
2023/10/19 10:25:28;;;;;;;8.40;1.92;;;15.30;99.90;;;;;;4952329;28;20054;-95
2023/10/19 10:27:55;;;;;;;12.48;2.15;;;15.40;99.90;;;;;;4971707;28;20049;-93
2023/10/19 10:30:21;;;;;;;11.13;1.90;;;15.40;99.90;;;;;;4977906;28;20025;-96
2023/10/19 10:32:57;;;;;;;12.77;1.90;;;15.40;99.90;;;;;;4982817;28;20023;-95
2023/10/19 10:35:54;;;;;;;11.05;1.70;;;15.50;99.90;;;;;;4978877;28;20122;-95
2023/10/19 10:38:20;;;;;;;11.10;1.75;;;15.50;99.90;;;;;;4962366;28;20031;-95
2023/10/19 10:40:48;;;;;;;13.48;1.90;;;15.40;99.90;;;;;;4979313;28;20165;-96
2023/10/19 10:43:15;;;;;;;15.35;1.88;;;15.50;99.90;;;;;;4986816;28;20022;-96
2023/10/19 10:45:41;;;;;;;14.98;2.13;;;15.40;99.90;;;;;;4987014;28;20031;-96
2023/10/19 10:48:14;;;;;;;9.43;2.17;;;15.40;99.90;;;;;;4990332;28;20026;-96
2023/10/19 10:50:41;;;;;;;14.80;2.03;;;15.40;99.90;;;;;;4980471;28;20023;-95
2023/10/19 10:53:11;;;;;;;15.50;2.00;;;15.50;99.90;;;;;;4980549;28;20031;-94
2023/10/19 10:55:39;;;;;;;15.67;3.17;;;15.50;99.90;;;;;;4985673;28;20019;-96
2023/10/19 10:58:05;;;;;;;14.50;2.63;;;15.40;99.90;;;;;;4981075;28;20035;-96
2023/10/19 11:00:34;;;;;;;15.90;2.90;;;15.50;99.90;;;;;;4969539;28;20031;-96
2023/10/19 11:03:07;;;;;;;18.52;3.35;;;15.50;99.90;;;;;;4965874;28;20045;-94
2023/10/19 11:05:35;;;;;;;16.35;2.55;;;15.50;99.90;;;;;;4965468;28;20026;-95
2023/10/19 11:08:17;;;;;;;15.02;2.63;;;15.60;99.90;;;;;;4972430;28;20035;-95
2023/10/19 11:10:50;;;;;;;8.43;2.33;;;15.90;99.90;;;;;;4967262;28;20023;-96
2023/10/19 11:13:17;;;;;;;12.45;3.15;;;16.20;99.90;;;;;;4972190;28;20118;-96
2023/10/19 11:15:54;;;;;;;8.27;2.90;;;16.30;99.90;;;;;;4964431;28;20106;-94
2023/10/19 11:18:30;;;;;;;13.98;2.50;;;16.30;99.90;;;;;;4969694;28;20058;-95
2023/10/19 11:20:59;;;;;;;12.63;2.53;;;16.30;99.90;;;;;;4983183;28;20030;-94
2023/10/19 11:23:39;;;;;;;15.88;2.17;;;16.30;99.90;;;;;;4961259;28;20030;-94
2023/10/19 11:26:05;;;;;;;15.23;2.87;;;16.20;99.90;;;;;;4962911;28;20031;-94
2023/10/19 11:28:33;;;;;;;15.38;3.25;;;16.10;99.90;;;;;;4963876;28;20055;-96
2023/10/19 11:31:41;;;;;;;19.60;2.65;;;16.10;99.90;;;;;;4964981;28;20026;-96
2023/10/19 11:34:08;;;;;;;7.97;2.45;;;15.90;99.90;;;;;;4928457;28;20039;-95
2023/10/19 11:36:35;;;;;;;11.32;2.30;;;15.90;99.90;;;;;;4964294;28;20507;-96
2023/10/19 11:39:01;;;;;;;13.77;2.38;;;15.80;99.90;;;;;;4971388;28;20032;-94
2023/10/19 11:41:27;;;;;;;11.90;1.90;;;15.80;99.90;;;;;;4975854;28;20023;-94
2023/10/19 11:43:52;;;;;;;11.68;2.47;;;15.80;99.90;;;;;;4988161;28;20034;-94
2023/10/19 11:46:18;;;;;;;11.70;1.77;;;15.80;99.90;;;;;;4969313;28;20039;-95
2023/10/19 11:48:45;;;;;;;7.93;2.38;;;15.80;99.90;;;;;;4976014;28;20019;-94
2023/10/19 11:51:11;;;;;;;15.63;2.15;;;15.80;99.90;;;;;;4964985;28;20035;-94
2023/10/19 11:53:38;;;;;;;13.70;2.28;;;15.80;99.90;;;;;;4973477;28;20127;-96
2023/10/19 11:56:09;;;;;;;13.65;1.95;;;15.80;99.90;;;;;;4972140;28;20030;-94
2023/10/19 11:58:37;;;;;;;12.70;2.85;;;15.90;99.90;;;;;;4969711;28;20018;-94
2023/10/19 12:01:05;;;;;;;12.98;1.90;;;15.90;99.90;;;;;;4959438;28;20039;-94
2023/10/19 12:03:31;;;;;;;14.32;1.98;;;15.90;99.90;;;;;;4989392;28;20023;-95
2023/10/19 12:05:57;;;;;;;12.88;1.90;;;16.00;99.90;;;;;;4964804;28;20031;-94
2023/10/19 12:08:26;;;;;;;12.00;1.70;;;16.00;99.90;;;;;;4961150;28;20031;-95
2023/10/19 12:10:52;;;;;;;9.32;1.80;;;16.00;99.90;;;;;;4967965;28;20019;-95
2023/10/19 12:13:18;;;;;;;9.23;2.10;;;15.90;99.90;;;;;;4967830;28;20027;-94
2023/10/19 12:15:51;;;;;;;9.13;1.70;;;15.90;99.90;;;;;;4967181;28;20429;-95
2023/10/19 12:18:20;;;;;;;10.32;1.65;;;16.00;99.90;;;;;;4966313;28;20539;-95
2023/10/19 12:20:47;;;;;;;8.15;1.80;;;16.00;99.90;;;;;;4967711;28;20477;-94
2023/10/19 12:23:14;;;;;;;11.00;1.98;;;16.10;99.90;;;;;;4988613;28;20027;-95
2023/10/19 12:25:42;;;;;;;10.63;2.25;;;16.20;99.90;;;;;;4958858;29;20027;-94
2023/10/19 12:28:13;;;;;;;8.88;2.20;;;16.40;99.90;;;;;;4958335;29;20050;-94
2023/10/19 12:30:41;;;;;;;10.75;1.73;;;16.60;99.90;;;;;;4967308;28;20023;-94
2023/10/19 12:33:14;;;;;;;10.52;2.20;;;16.70;99.90;;;;;;5006447;28;20405;-93
2023/10/19 12:35:45;;;;;;;13.10;1.85;;;16.80;99.90;;;;;;4958822;28;20469;-93
2023/10/19 12:38:16;;;;;;;17.08;3.20;;;16.80;99.90;;;;;;4965760;28;20545;-93
2023/10/19 12:40:47;;;;;;;10.63;1.85;;;16.80;99.90;;;;;;4965599;28;20046;-92
2023/10/19 12:43:13;;;;;;;;;;;16.80;99.90;;;;;;4992585;28;20034;-95
2023/10/19 12:45:40;;;;;;;9.55;1.80;;;16.80;99.90;;;;;;4957323;28;19906;-94
2023/10/19 12:48:06;;;;;;;11.20;2.30;;;16.80;99.90;;;;;;4958126;29;20670;-93
2023/10/19 12:50:34;;;;;;;8.13;2.05;;;16.80;99.90;;;;;;4961112;29;20023;-94
2023/10/19 12:53:03;;;;;;;13.13;2.05;;;16.90;99.90;;;;;;4960117;28;20053;-93
2023/10/19 12:55:30;;;;;;;10.07;2.28;;;16.90;99.90;;;;;;4958767;28;20108;-93
2023/10/19 12:58:06;;;;;;;11.15;2.15;;;17.00;99.90;;;;;;4958950;29;20039;-92
2023/10/19 13:00:43;;;;;;;8.63;1.70;;;17.00;99.90;;;;;;4958025;29;20029;-93
2023/10/19 13:03:13;;;;;;;9.65;1.70;;;16.90;99.90;;;;;;4957790;29;20389;-92
2023/10/19 13:05:40;;;;;;;6.80;1.27;;;16.90;99.90;;;;;;4957778;28;20027;-93
2023/10/19 13:21:44;;;;;;;10.32;1.90;;;16.90;99.90;;;;;;5052335;23;20053;-93
2023/10/19 13:29:26;;;;;;;9.98;2.65;;;16.80;99.90;;;;;;5364791;23;20045;-95
2023/10/19 13:37:08;;;;;;;14.35;1.73;;;16.80;99.90;;;;;;5130365;23;20086;-95
2023/10/19 14:19:11;;;;;;;10.13;2.63;;;17.30;99.90;;;;;;1386021;23;20374;-94
2023/10/19 14:21:40;;;;;;;15.10;2.67;;;17.40;99.90;;;;;;5010589;28;20046;-95
2023/10/19 14:24:08;;;;;;;12.13;2.10;;;17.50;99.90;;;;;;5006023;28;20034;-95
2023/10/19 14:26:38;;;;;;;13.23;2.67;;;17.50;99.90;;;;;;5017546;28;20076;-96
2023/10/19 15:09:16;;;;;;;14.00;2.20;;;17.90;99.90;;;;;;6098007;23;20027;-93
2023/10/19 15:11:43;;;;;;;14.82;2.38;;;18.10;99.90;;;;;;4978027;28;20055;-96
2023/10/19 15:14:10;;;;;;;17.00;2.47;;;18.20;99.90;;;;;;4979872;28;20071;-95
2023/10/19 15:16:36;;;;;;;16.95;2.88;;;18.20;99.90;;;;;;4994282;28;20039;-94
2023/10/19 15:19:03;;;;;;;13.10;2.10;;;18.10;99.90;;;;;;4969001;28;20031;-95